Time;durP1;ratioP1;P1;durP2;ratioP2;P2;SDS_P1;SDS_P2;PMS_P1;PMS_P2;Temp;Humidity;BMP_temperature;BMP_pressure;BME280_temperature;BME280_humidity;BME280_pressure;Samples;Min_cycle;Max_cycle;Signal;HPM_P1;HPM_P2
2022/03/09 00:00:31;;;;;;;8.68;5.93;;;2.00;99.90;;;;;;5072716;28;20055;-72
2022/03/09 00:02:57;;;;;;;7.75;5.43;;;2.00;99.90;;;;;;5090326;28;20041;-71
2022/03/09 00:05:22;;;;;;;9.50;5.45;;;2.00;99.90;;;;;;5089869;28;20068;-71
2022/03/09 00:07:48;;;;;;;11.73;6.15;;;2.00;99.90;;;;;;5081766;28;20063;-72
2022/03/09 00:10:14;;;;;;;7.97;5.72;;;1.90;99.90;;;;;;5068973;28;20037;-71
2022/03/09 00:12:40;;;;;;;8.90;5.72;;;1.90;99.90;;;;;;5067878;28;20052;-75
2022/03/09 00:15:06;;;;;;;8.15;5.95;;;1.90;99.90;;;;;;5068031;28;20045;-72
2022/03/09 00:17:31;;;;;;;10.68;6.07;;;1.90;99.90;;;;;;5067893;28;20093;-72
2022/03/09 00:19:57;;;;;;;10.63;6.00;;;1.80;99.90;;;;;;5085621;28;20037;-72
2022/03/09 00:22:23;;;;;;;9.50;6.20;;;1.80;99.90;;;;;;5068885;28;20100;-72
2022/03/09 00:24:48;;;;;;;9.85;5.88;;;1.80;99.90;;;;;;5068952;28;20047;-73
2022/03/09 00:27:14;;;;;;;10.52;6.13;;;1.80;99.90;;;;;;5087264;28;20037;-71
2022/03/09 00:29:40;;;;;;;10.13;6.20;;;1.70;99.90;;;;;;5089236;28;20127;-72
2022/03/09 00:32:06;;;;;;;11.32;5.97;;;1.70;99.90;;;;;;5087531;28;20041;-71
2022/03/09 00:34:33;;;;;;;10.02;6.18;;;1.70;99.90;;;;;;5072084;28;20100;-74
2022/03/09 00:36:59;;;;;;;9.55;6.50;;;1.70;99.90;;;;;;5088369;28;20044;-74
2022/03/09 00:39:25;;;;;;;8.35;5.75;;;1.60;99.90;;;;;;5089041;28;20060;-73
2022/03/09 00:41:50;;;;;;;10.82;6.65;;;1.60;99.90;;;;;;5087077;28;20433;-74
2022/03/09 00:44:16;;;;;;;12.68;7.00;;;1.60;99.90;;;;;;5087677;28;20039;-71
2022/03/09 00:46:42;;;;;;;12.07;6.03;;;1.50;99.90;;;;;;5071576;28;20036;-72
2022/03/09 00:49:10;;;;;;;9.43;6.13;;;1.50;99.90;;;;;;5071382;28;20044;-71
2022/03/09 00:51:36;;;;;;;11.40;6.45;;;1.50;99.90;;;;;;5070484;28;20359;-71
2022/03/09 00:54:02;;;;;;;9.15;6.28;;;1.40;99.90;;;;;;5071646;28;20041;-71
2022/03/09 00:56:28;;;;;;;10.57;6.43;;;1.40;99.90;;;;;;5087628;28;20050;-72
2022/03/09 00:58:53;;;;;;;10.00;6.78;;;1.40;99.90;;;;;;5086934;28;20036;-72
2022/03/09 01:01:19;;;;;;;11.50;6.97;;;1.40;99.90;;;;;;5072433;28;20040;-71
2022/03/09 01:03:45;;;;;;;8.93;6.70;;;1.40;99.90;;;;;;5050517;28;20048;-72
2022/03/09 01:06:10;;;;;;;9.73;6.70;;;1.30;99.90;;;;;;5050647;28;20499;-72
2022/03/09 01:08:36;;;;;;;10.52;6.72;;;1.30;99.90;;;;;;5067289;28;20037;-72
2022/03/09 01:11:02;;;;;;;11.02;7.00;;;1.20;99.90;;;;;;5050948;28;20084;-73
2022/03/09 01:13:28;;;;;;;10.90;6.55;;;1.20;99.90;;;;;;5049500;28;20048;-71
2022/03/09 01:15:53;;;;;;;10.38;7.20;;;1.20;99.90;;;;;;5085549;28;20068;-71
2022/03/09 01:18:19;;;;;;;10.73;6.72;;;1.20;99.90;;;;;;5087667;28;20046;-71
2022/03/09 01:20:45;;;;;;;10.55;6.70;;;1.20;99.90;;;;;;5086730;28;20043;-75
2022/03/09 01:23:11;;;;;;;12.13;6.80;;;1.20;99.90;;;;;;5086835;28;20090;-74
2022/03/09 01:25:36;;;;;;;10.10;6.43;;;1.10;99.90;;;;;;5087082;28;20049;-74
2022/03/09 01:28:02;;;;;;;10.10;6.43;;;1.10;99.90;;;;;;5085905;28;20039;-71
2022/03/09 01:30:28;;;;;;;9.52;6.45;;;1.10;99.90;;;;;;5069251;28;20049;-74
2022/03/09 01:32:54;;;;;;;9.88;6.75;;;1.10;99.90;;;;;;5070093;28;20037;-72
2022/03/09 01:35:19;;;;;;;12.60;6.63;;;1.10;99.90;;;;;;5070170;28;20135;-72
2022/03/09 01:37:48;;;;;;;11.50;6.93;;;1.10;99.90;;;;;;5069064;28;20059;-71
2022/03/09 01:40:14;;;;;;;11.93;6.95;;;1.00;99.90;;;;;;5086576;28;20033;-74
2022/03/09 01:42:41;;;;;;;9.18;6.43;;;1.10;99.90;;;;;;5086483;28;20040;-71
2022/03/09 01:45:11;;;;;;;9.70;6.80;;;1.00;99.90;;;;;;5085889;28;20037;-71
2022/03/09 01:47:37;;;;;;;9.45;6.68;;;1.00;99.90;;;;;;5068753;28;20051;-74
2022/03/09 01:50:05;;;;;;;12.90;7.22;;;1.00;99.90;;;;;;5086719;28;20040;-73
2022/03/09 01:52:31;;;;;;;14.75;7.45;;;1.00;99.90;;;;;;5086669;28;20041;-71
2022/03/09 01:54:57;;;;;;;13.48;7.65;;;1.00;99.90;;;;;;5086198;28;20096;-71
2022/03/09 01:57:23;;;;;;;14.02;8.40;;;0.90;99.90;;;;;;5085685;28;20037;-74
2022/03/09 01:59:51;;;;;;;12.60;8.27;;;0.90;99.90;;;;;;5087135;28;20066;-71
2022/03/09 02:02:17;;;;;;;12.38;7.78;;;0.90;99.90;;;;;;5069384;28;20036;-75
2022/03/09 02:04:44;;;;;;;14.23;8.18;;;0.90;99.90;;;;;;5086525;28;20055;-72
2022/03/09 02:07:10;;;;;;;14.77;8.93;;;0.90;99.90;;;;;;5086515;28;20047;-72
2022/03/09 02:09:46;;;;;;;14.55;7.97;;;1.00;99.90;;;;;;5086032;28;20044;-71
2022/03/09 02:12:17;;;;;;;14.85;8.45;;;0.90;99.90;;;;;;5084143;28;20075;-73
2022/03/09 02:14:46;;;;;;;14.57;8.77;;;1.00;99.90;;;;;;5077620;28;20049;-71
2022/03/09 02:17:18;;;;;;;17.55;9.48;;;0.90;99.90;;;;;;5082398;28;20044;-71
2022/03/09 02:19:46;;;;;;;20.65;8.40;;;0.90;99.90;;;;;;5085522;28;20119;-75
2022/03/09 02:22:32;;;;;;;12.48;8.10;;;0.90;99.90;;;;;;5068506;28;20470;-74
2022/03/09 02:24:59;;;;;;;13.43;8.55;;;0.90;99.90;;;;;;5069064;28;20406;-72
2022/03/09 02:27:31;;;;;;;16.00;8.70;;;0.90;99.90;;;;;;5084544;28;20044;-74
2022/03/09 02:29:57;;;;;;;11.40;7.68;;;0.80;99.90;;;;;;5068035;28;20038;-73
2022/03/09 02:32:23;;;;;;;14.10;8.90;;;0.80;99.90;;;;;;5084823;28;20043;-71
2022/03/09 02:34:49;;;;;;;15.98;8.68;;;0.80;99.90;;;;;;5068911;28;20037;-71
2022/03/09 02:37:15;;;;;;;12.45;7.90;;;0.80;99.90;;;;;;5069467;28;20040;-71
2022/03/09 02:39:41;;;;;;;14.98;7.75;;;0.80;99.90;;;;;;5087748;28;20067;-71
2022/03/09 02:42:07;;;;;;;17.80;8.35;;;0.80;99.90;;;;;;5089556;28;20479;-72
2022/03/09 02:44:33;;;;;;;11.85;7.40;;;0.80;99.90;;;;;;5089390;28;20040;-71
2022/03/09 02:46:59;;;;;;;13.68;8.35;;;0.80;99.90;;;;;;5089621;28;20045;-74
2022/03/09 02:49:25;;;;;;;14.57;8.63;;;0.80;99.90;;;;;;5072016;28;20386;-73
2022/03/09 02:51:51;;;;;;;14.57;8.60;;;0.80;99.90;;;;;;5089134;28;20048;-73
2022/03/09 02:54:16;;;;;;;15.30;9.93;;;0.80;99.90;;;;;;5089364;28;20075;-74
2022/03/09 02:56:42;;;;;;;18.80;9.80;;;0.80;99.90;;;;;;5089691;28;20040;-74
2022/03/09 02:59:08;;;;;;;15.75;9.90;;;0.70;99.90;;;;;;5088914;28;20056;-71
2022/03/09 03:01:34;;;;;;;15.32;9.27;;;0.70;99.90;;;;;;5088430;28;20036;-74
2022/03/09 03:03:59;;;;;;;14.90;9.32;;;0.70;99.90;;;;;;5072404;28;20036;-73
2022/03/09 03:06:25;;;;;;;15.02;9.05;;;0.70;99.90;;;;;;5072301;28;20097;-73
2022/03/09 03:08:51;;;;;;;14.82;9.00;;;0.70;99.90;;;;;;5088903;28;20048;-71
2022/03/09 03:11:17;;;;;;;13.95;8.40;;;0.70;99.90;;;;;;5071875;28;20059;-73
2022/03/09 03:13:44;;;;;;;15.88;9.45;;;0.70;99.90;;;;;;5089055;28;20040;-74
2022/03/09 03:16:11;;;;;;;14.90;8.50;;;0.70;99.90;;;;;;5089320;28;20040;-73
2022/03/09 03:18:37;;;;;;;13.95;8.73;;;0.60;99.90;;;;;;5088372;28;20040;-71
2022/03/09 03:21:03;;;;;;;15.63;8.68;;;0.60;99.90;;;;;;5089784;28;20035;-73
2022/03/09 03:23:31;;;;;;;16.70;8.02;;;0.60;99.90;;;;;;5072150;28;20367;-71
2022/03/09 03:25:58;;;;;;;13.35;8.88;;;0.60;99.90;;;;;;5087991;28;20078;-71
2022/03/09 03:28:24;;;;;;;14.00;8.93;;;0.50;99.90;;;;;;5071800;28;20041;-73
2022/03/09 03:30:51;;;;;;;15.20;9.00;;;0.50;99.90;;;;;;5087607;28;20044;-73
2022/03/09 03:33:18;;;;;;;14.50;8.98;;;0.50;99.90;;;;;;5070946;28;20102;-71
2022/03/09 03:35:44;;;;;;;12.15;7.95;;;0.50;99.90;;;;;;5082029;28;20086;-71
2022/03/09 03:38:10;;;;;;;14.48;8.65;;;0.50;99.90;;;;;;5071442;28;20052;-73
2022/03/09 03:40:36;;;;;;;13.35;8.85;;;0.40;99.90;;;;;;5084494;28;20061;-72
2022/03/09 03:43:03;;;;;;;13.45;8.52;;;0.40;99.90;;;;;;5069681;28;20040;-71
2022/03/09 03:45:29;;;;;;;14.93;8.88;;;0.40;99.90;;;;;;5045542;28;20049;-71
2022/03/09 03:47:54;;;;;;;14.75;8.70;;;0.30;99.90;;;;;;5029864;28;20053;-72
2022/03/09 03:50:21;;;;;;;13.05;8.52;;;0.30;99.90;;;;;;5013660;28;20057;-74
2022/03/09 03:52:47;;;;;;;17.02;9.18;;;0.30;99.90;;;;;;5028811;28;20053;-73
2022/03/09 03:55:13;;;;;;;14.55;8.50;;;0.30;99.90;;;;;;5046152;28;20049;-72
2022/03/09 03:57:39;;;;;;;14.05;8.63;;;0.20;99.90;;;;;;5030206;28;20045;-75
2022/03/09 04:00:06;;;;;;;13.52;8.20;;;0.20;99.90;;;;;;5013146;28;20059;-71
2022/03/09 04:02:32;;;;;;;15.35;8.73;;;0.20;99.90;;;;;;5028447;28;20048;-73
2022/03/09 04:04:58;;;;;;;14.10;8.93;;;0.20;99.90;;;;;;5019211;28;20077;-71
2022/03/09 04:07:23;;;;;;;15.25;8.60;;;0.20;99.90;;;;;;5046309;28;20038;-74
2022/03/09 04:09:49;;;;;;;15.73;9.07;;;0.20;99.90;;;;;;5028328;28;20557;-71
2022/03/09 04:12:15;;;;;;;14.27;9.25;;;0.20;99.90;;;;;;5013097;28;20109;-71
2022/03/09 04:14:41;;;;;;;13.48;9.63;;;0.20;99.90;;;;;;5046435;28;20057;-73
2022/03/09 04:17:07;;;;;;;14.55;8.68;;;0.20;99.90;;;;;;5073483;28;20044;-71
2022/03/09 04:19:32;;;;;;;13.50;9.15;;;0.20;99.90;;;;;;5085689;28;20082;-73
2022/03/09 04:21:58;;;;;;;15.30;9.32;;;0.10;99.90;;;;;;5085919;28;20044;-73
2022/03/09 04:24:24;;;;;;;15.35;8.85;;;0.10;99.90;;;;;;5086170;28;20374;-72
2022/03/09 04:26:50;;;;;;;14.95;9.00;;;0.10;99.90;;;;;;5065998;28;20099;-72
2022/03/09 04:29:16;;;;;;;15.50;9.57;;;0.10;99.90;;;;;;5030797;28;20049;-73
2022/03/09 04:31:41;;;;;;;13.35;8.45;;;0.10;99.90;;;;;;5032089;28;20052;-74
2022/03/09 04:34:07;;;;;;;14.30;9.25;;;0.10;99.90;;;;;;5066138;28;20407;-71
2022/03/09 04:36:33;;;;;;;15.20;9.60;;;0.10;99.90;;;;;;5064325;28;20053;-71
2022/03/09 04:38:59;;;;;;;15.23;9.02;;;0.10;99.90;;;;;;5064365;28;20048;-71
2022/03/09 04:41:25;;;;;;;14.20;9.63;;;0.10;99.90;;;;;;5065819;28;20045;-72
2022/03/09 04:43:51;;;;;;;15.50;9.50;;;0.10;99.90;;;;;;5049521;28;20045;-71
2022/03/09 04:46:17;;;;;;;13.63;8.98;;;0.10;99.90;;;;;;5064799;28;20055;-72
2022/03/09 04:48:43;;;;;;;13.45;8.70;;;0.10;99.90;;;;;;5032986;28;20041;-73
2022/03/09 04:51:10;;;;;;;15.75;9.60;;;0.00;99.90;;;;;;5065934;28;20056;-71
2022/03/09 04:53:35;;;;;;;15.85;9.57;;;0.00;99.90;;;;;;5063034;28;20068;-73
2022/03/09 04:56:01;;;;;;;20.75;9.73;;;0.00;99.90;;;;;;5060224;28;20049;-71
2022/03/09 04:58:27;;;;;;;16.02;9.27;;;0.00;99.90;;;;;;5067990;28;20049;-74
2022/03/09 05:00:53;;;;;;;15.65;9.60;;;0.00;99.90;;;;;;5086222;28;20044;-72
2022/03/09 05:03:18;;;;;;;13.23;8.65;;;0.00;99.90;;;;;;5067777;28;20051;-75
2022/03/09 05:05:44;;;;;;;16.00;9.13;;;0.00;99.90;;;;;;5084912;28;20036;-71
2022/03/09 05:08:13;;;;;;;14.02;9.13;;;-0.10;99.90;;;;;;5068864;28;20048;-72
2022/03/09 05:10:39;;;;;;;15.75;10.32;;;-0.10;99.90;;;;;;5085314;28;20094;-71
2022/03/09 05:13:05;;;;;;;14.35;9.20;;;-0.10;99.90;;;;;;5085784;28;20036;-73
2022/03/09 05:15:31;;;;;;;14.80;9.60;;;0.00;99.90;;;;;;5085015;28;20040;-71
2022/03/09 05:17:57;;;;;;;15.07;9.07;;;0.00;99.90;;;;;;5082578;28;20471;-71
2022/03/09 05:20:23;;;;;;;16.00;9.88;;;-0.10;99.90;;;;;;5085233;28;20066;-72
2022/03/09 05:22:49;;;;;;;15.40;8.88;;;-0.10;99.90;;;;;;5085374;28;20040;-75
2022/03/09 05:25:15;;;;;;;14.40;9.40;;;-0.10;99.90;;;;;;5085445;28;20044;-71
2022/03/09 05:27:41;;;;;;;16.15;9.65;;;-0.10;99.90;;;;;;5069340;28;20048;-71
2022/03/09 05:30:11;;;;;;;16.17;9.93;;;-0.10;99.90;;;;;;5084820;28;20043;-71
2022/03/09 05:32:38;;;;;;;15.43;9.80;;;-0.10;99.90;;;;;;5085045;28;20497;-74
2022/03/09 05:35:04;;;;;;;16.17;9.73;;;-0.10;99.90;;;;;;5085121;28;20048;-73
2022/03/09 05:37:38;;;;;;;16.30;10.23;;;-0.10;99.90;;;;;;5085274;28;20071;-72
2022/03/09 05:40:05;;;;;;;18.10;9.93;;;-0.10;99.90;;;;;;5085066;28;20066;-71
2022/03/09 05:42:31;;;;;;;15.63;9.18;;;-0.20;99.90;;;;;;5085275;28;20080;-71
2022/03/09 05:44:56;;;;;;;15.48;9.75;;;-0.10;99.90;;;;;;5067732;28;20110;-74
2022/03/09 05:47:22;;;;;;;14.73;9.43;;;-0.10;99.90;;;;;;5085635;28;20045;-71
2022/03/09 05:49:48;;;;;;;16.63;9.52;;;-0.20;99.90;;;;;;5084859;28;20044;-74
2022/03/09 05:52:13;;;;;;;13.68;9.32;;;-0.20;99.90;;;;;;5084427;28;20044;-74
2022/03/09 05:54:39;;;;;;;13.68;9.18;;;-0.20;99.90;;;;;;5075135;28;20045;-73
2022/03/09 05:57:05;;;;;;;14.63;9.40;;;-0.20;99.90;;;;;;5064167;28;20483;-71
2022/03/09 05:59:30;;;;;;;14.98;9.38;;;-0.20;99.90;;;;;;5046943;28;20082;-73
2022/03/09 06:01:56;;;;;;;18.77;9.57;;;-0.30;99.90;;;;;;5064144;28;20033;-71
2022/03/09 06:04:22;;;;;;;13.77;8.70;;;-0.30;99.90;;;;;;5048211;28;20041;-71
2022/03/09 06:06:47;;;;;;;14.43;9.40;;;-0.30;99.90;;;;;;5063540;28;20123;-71
2022/03/09 06:09:13;;;;;;;14.95;8.90;;;-0.30;99.90;;;;;;5063617;28;20041;-71
2022/03/09 06:11:41;;;;;;;15.80;8.82;;;-0.30;99.90;;;;;;5064665;28;20041;-72
2022/03/09 06:14:07;;;;;;;13.13;9.13;;;-0.40;99.90;;;;;;5063896;28;20132;-74
2022/03/09 06:16:32;;;;;;;16.33;9.25;;;-0.40;99.90;;;;;;5063741;28;20106;-74
2022/03/09 06:18:58;;;;;;;15.93;9.70;;;-0.40;99.90;;;;;;5063586;28;20038;-71
2022/03/09 06:21:24;;;;;;;14.20;9.20;;;-0.40;99.90;;;;;;5062977;28;20041;-71
2022/03/09 06:23:49;;;;;;;13.98;9.40;;;-0.30;99.90;;;;;;5083609;28;20052;-71
2022/03/09 06:26:15;;;;;;;16.88;9.02;;;-0.30;99.90;;;;;;5066291;28;20044;-73
2022/03/09 06:28:41;;;;;;;13.55;8.65;;;-0.30;99.90;;;;;;5046961;28;20385;-72
2022/03/09 06:31:07;;;;;;;15.02;8.65;;;-0.40;99.90;;;;;;5064718;28;20051;-71
2022/03/09 06:33:33;;;;;;;14.20;9.35;;;-0.30;99.90;;;;;;5064895;28;20048;-72
2022/03/09 06:35:58;;;;;;;13.07;8.73;;;-0.30;99.90;;;;;;5064104;28;20041;-74
2022/03/09 06:38:25;;;;;;;15.60;8.98;;;-0.30;99.90;;;;;;5064459;28;20037;-72
2022/03/09 06:40:50;;;;;;;14.68;8.95;;;-0.30;99.90;;;;;;5063738;28;20045;-73
2022/03/09 06:43:16;;;;;;;17.25;9.43;;;-0.30;99.90;;;;;;5064423;28;20224;-73
2022/03/09 06:45:42;;;;;;;18.83;9.55;;;-0.30;99.90;;;;;;5064358;28;20041;-72
2022/03/09 06:48:07;;;;;;;17.80;9.18;;;-0.30;99.90;;;;;;5064707;28;20095;-72
2022/03/09 06:50:34;;;;;;;14.30;8.73;;;-0.30;99.90;;;;;;5064484;28;20048;-74
2022/03/09 06:53:00;;;;;;;19.60;8.82;;;-0.20;99.90;;;;;;5064760;28;20040;-75
2022/03/09 06:55:26;;;;;;;15.98;9.65;;;-0.20;99.90;;;;;;5047543;28;20033;-71
2022/03/09 06:57:52;;;;;;;15.20;9.30;;;-0.20;99.90;;;;;;5064191;28;20136;-73
2022/03/09 07:00:18;;;;;;;16.55;9.63;;;-0.10;99.90;;;;;;5064303;28;20041;-74
2022/03/09 07:02:44;;;;;;;12.95;8.43;;;-0.10;99.90;;;;;;5064615;28;20432;-74
2022/03/09 07:05:11;;;;;;;16.65;9.88;;;-0.10;99.90;;;;;;5083930;28;20041;-71
2022/03/09 07:07:38;;;;;;;14.30;9.13;;;0.00;99.90;;;;;;5085098;28;20106;-71
2022/03/09 07:10:04;;;;;;;16.02;9.70;;;0.00;99.90;;;;;;5084332;28;20040;-71
2022/03/09 07:12:30;;;;;;;20.98;9.38;;;0.10;99.90;;;;;;5084147;28;20422;-71
2022/03/09 07:14:56;;;;;;;17.25;9.90;;;0.20;99.90;;;;;;5084898;28;20548;-71
2022/03/09 07:17:21;;;;;;;15.48;9.75;;;0.20;99.90;;;;;;5067562;28;20461;-75
2022/03/09 07:19:47;;;;;;;13.15;9.18;;;0.30;99.90;;;;;;5084821;28;20036;-75
2022/03/09 07:22:13;;;;;;;16.42;9.10;;;0.40;99.90;;;;;;5084223;28;20387;-74
2022/03/09 07:24:38;;;;;;;14.93;9.02;;;0.50;99.90;;;;;;5085256;28;20463;-74
2022/03/09 07:27:04;;;;;;;14.40;8.98;;;0.50;99.90;;;;;;5070729;28;20044;-74
2022/03/09 07:29:30;;;;;;;16.27;9.85;;;0.60;99.90;;;;;;5088615;28;20040;-72
2022/03/09 07:31:56;;;;;;;14.88;8.63;;;0.70;99.90;;;;;;5088453;28;20109;-73
2022/03/09 07:34:22;;;;;;;15.48;9.85;;;0.80;99.90;;;;;;5071674;28;20036;-75
2022/03/09 07:36:49;;;;;;;14.65;9.07;;;0.90;99.90;;;;;;5071139;28;20040;-74
2022/03/09 07:39:16;;;;;;;13.90;8.80;;;1.10;99.90;;;;;;5088827;28;20044;-71
2022/03/09 07:41:42;;;;;;;15.07;8.73;;;1.20;99.90;;;;;;5087188;28;20036;-72
2022/03/09 07:44:08;;;;;;;13.50;8.63;;;1.30;99.90;;;;;;5079745;28;20033;-72
2022/03/09 07:46:34;;;;;;;15.13;8.15;;;1.40;99.90;;;;;;5079324;28;20037;-76
2022/03/09 07:49:00;;;;;;;13.05;8.35;;;1.60;99.90;;;;;;5068353;28;20076;-75
2022/03/09 07:51:26;;;;;;;14.95;9.07;;;1.70;99.90;;;;;;5068132;28;20045;-76
2022/03/09 07:53:51;;;;;;;12.77;8.40;;;1.90;99.90;;;;;;5068461;28;20048;-73
2022/03/09 07:56:17;;;;;;;16.85;9.07;;;2.10;99.90;;;;;;5052385;28;20044;-73
2022/03/09 07:58:43;;;;;;;13.73;8.07;;;2.20;99.90;;;;;;5068854;28;20047;-75
2022/03/09 08:01:09;;;;;;;15.05;7.90;;;2.40;99.90;;;;;;5069281;28;20467;-75
2022/03/09 08:03:35;;;;;;;16.77;8.13;;;2.50;99.90;;;;;;5052427;28;20036;-73
2022/03/09 08:06:01;;;;;;;16.65;8.05;;;2.70;99.90;;;;;;5070923;28;20037;-75
2022/03/09 08:08:27;;;;;;;11.68;7.88;;;2.90;99.90;;;;;;5070143;28;20033;-75
2022/03/09 08:10:52;;;;;;;15.80;8.43;;;3.10;99.90;;;;;;5066055;28;20404;-74
2022/03/09 08:13:18;;;;;;;12.60;7.60;;;3.20;99.90;;;;;;5072902;28;20489;-75
2022/03/09 08:15:44;;;;;;;14.02;8.38;;;3.40;99.90;;;;;;5069825;28;20045;-74
2022/03/09 08:18:10;;;;;;;13.20;7.88;;;3.60;99.90;;;;;;5070036;28;20037;-75
2022/03/09 08:20:35;;;;;;;14.73;8.88;;;3.80;99.90;;;;;;5070110;28;20032;-74
2022/03/09 08:23:01;;;;;;;13.48;8.13;;;3.90;99.90;;;;;;5071148;28;20477;-75
2022/03/09 08:25:27;;;;;;;14.30;8.50;;;4.10;99.90;;;;;;5054253;28;20479;-74
2022/03/09 08:27:53;;;;;;;15.73;8.35;;;4.30;99.90;;;;;;5054467;28;20045;-74
2022/03/09 08:30:18;;;;;;;14.68;8.55;;;4.40;99.90;;;;;;5054814;28;20045;-74
2022/03/09 08:32:44;;;;;;;12.38;8.10;;;4.60;99.90;;;;;;5055629;28;20040;-76
2022/03/09 08:35:10;;;;;;;15.80;8.52;;;4.80;99.90;;;;;;5055924;28;20064;-74
2022/03/09 08:37:35;;;;;;;13.70;8.38;;;5.00;99.90;;;;;;5072601;28;20044;-77
2022/03/09 08:40:01;;;;;;;15.52;8.32;;;5.20;98.80;;;;;;5072516;28;20044;-74
2022/03/09 08:42:27;;;;;;;12.88;8.20;;;5.40;98.10;;;;;;5076895;28;20036;-77
2022/03/09 08:44:52;;;;;;;14.48;9.35;;;5.60;97.50;;;;;;5076586;28;20041;-75
2022/03/09 08:47:18;;;;;;;12.82;8.38;;;5.90;96.20;;;;;;5084004;28;20048;-76
2022/03/09 08:49:44;;;;;;;12.63;8.05;;;6.10;94.80;;;;;;5094688;28;20044;-74
2022/03/09 08:52:13;;;;;;;16.77;8.13;;;6.30;93.70;;;;;;5095403;28;20470;-75
2022/03/09 08:54:42;;;;;;;12.32;8.90;;;6.50;91.30;;;;;;5079491;28;20044;-74
2022/03/09 08:57:08;;;;;;;15.07;8.63;;;6.60;91.10;;;;;;5079629;28;20055;-74
2022/03/09 08:59:35;;;;;;;12.60;8.55;;;6.80;90.80;;;;;;5078866;28;20036;-76
2022/03/09 09:02:00;;;;;;;18.55;7.90;;;6.90;87.90;;;;;;5070401;28;20029;-75
2022/03/09 09:04:26;;;;;;;12.60;8.20;;;7.00;84.40;;;;;;5059600;28;20041;-77
2022/03/09 09:06:52;;;;;;;16.95;8.65;;;7.10;83.60;;;;;;5076191;28;20039;-77
2022/03/09 09:09:18;;;;;;;12.93;8.02;;;7.30;83.00;;;;;;5059009;28;20037;-76
2022/03/09 09:11:45;;;;;;;13.73;8.88;;;7.50;80.90;;;;;;5075899;28;20028;-76
2022/03/09 09:14:11;;;;;;;13.68;8.02;;;7.60;80.00;;;;;;5083566;28;20066;-76
2022/03/09 09:16:41;;;;;;;15.65;8.98;;;7.80;77.90;;;;;;5076613;28;20036;-75
2022/03/09 09:19:07;;;;;;;16.45;8.05;;;8.00;75.80;;;;;;5059698;28;20434;-76
2022/03/09 09:21:37;;;;;;;12.25;8.20;;;8.10;73.60;;;;;;5076264;28;20044;-77
2022/03/09 09:24:04;;;;;;;10.80;7.35;;;8.20;71.50;;;;;;5076778;28;20033;-76
2022/03/09 09:26:32;;;;;;;11.77;7.43;;;8.30;70.70;;;;;;5076636;28;20021;-74
2022/03/09 09:28:58;;;;;;;14.48;8.30;;;8.50;69.70;;;;;;5066505;28;20033;-75
2022/03/09 09:31:23;;;;;;;11.32;7.25;;;8.70;68.90;;;;;;5075922;28;20039;-74
2022/03/09 09:33:49;;;;;;;11.15;7.82;;;8.90;68.10;;;;;;5059498;28;20048;-76
2022/03/09 09:36:18;;;;;;;11.40;7.15;;;9.00;67.30;;;;;;5076416;28;20043;-75
2022/03/09 09:38:44;;;;;;;14.95;8.20;;;9.20;66.90;;;;;;5076096;28;20063;-76
2022/03/09 09:41:18;;;;;;;11.13;7.47;;;9.30;65.60;;;;;;5076930;28;20068;-75
2022/03/09 09:43:48;;;;;;;13.25;7.25;;;9.50;64.50;;;;;;5077951;28;20052;-77
2022/03/09 09:46:17;;;;;;;11.23;7.60;;;9.40;63.00;;;;;;5087373;28;20037;-75
2022/03/09 09:48:47;;;;;;;11.52;7.68;;;9.50;63.90;;;;;;5099856;28;20101;-77
2022/03/09 09:51:14;;;;;;;;;;;9.60;63.30;;;;;;5048598;28;20041;-77
2022/03/09 09:53:42;;;;;;;12.48;6.97;;;9.70;61.90;;;;;;5076162;28;19922;-76
2022/03/09 09:56:09;;;;;;;12.68;7.65;;;9.70;63.30;;;;;;5055456;28;20037;-76
2022/03/09 09:58:37;;;;;;;11.05;7.55;;;9.70;62.40;;;;;;5076404;28;20032;-78
2022/03/09 10:01:03;;;;;;;10.73;7.32;;;9.80;61.70;;;;;;5080891;28;20037;-75
2022/03/09 10:03:31;;;;;;;12.60;8.13;;;9.80;61.00;;;;;;5062943;28;20039;-75
2022/03/09 10:05:57;;;;;;;14.15;8.45;;;9.80;60.50;;;;;;5060054;28;20040;-75
2022/03/09 10:08:23;;;;;;;12.63;8.15;;;9.90;60.70;;;;;;5062085;28;20029;-75
2022/03/09 10:10:56;;;;;;;11.05;7.45;;;9.90;60.60;;;;;;5076293;28;20088;-77
2022/03/09 10:13:24;;;;;;;11.52;7.47;;;10.00;59.00;;;;;;5076248;28;20067;-76
2022/03/09 10:16:20;;;;;;;14.48;7.28;;;10.00;59.70;;;;;;5059158;28;20029;-76
2022/03/09 10:18:54;;;;;;;11.15;7.95;;;10.10;58.60;;;;;;5074920;28;20029;-76
2022/03/09 10:21:28;;;;;;;11.95;7.55;;;10.20;59.40;;;;;;5057941;28;20025;-76
2022/03/09 10:24:01;;;;;;;12.27;7.78;;;10.40;58.80;;;;;;5058291;28;20067;-76
2022/03/09 10:26:44;;;;;;;10.63;7.60;;;10.40;58.90;;;;;;5058213;28;20033;-77
2022/03/09 10:29:12;;;;;;;13.32;8.10;;;10.30;59.10;;;;;;5074539;28;20017;-78
2022/03/09 10:31:50;;;;;;;13.68;8.45;;;10.40;59.10;;;;;;5074992;28;20036;-78
2022/03/09 10:34:19;;;;;;;12.02;7.88;;;10.50;58.80;;;;;;5075015;28;20100;-76
2022/03/09 10:37:02;;;;;;;12.80;7.80;;;10.60;58.60;;;;;;5074002;28;20057;-77
2022/03/09 10:39:34;;;;;;;11.60;7.80;;;10.60;56.70;;;;;;5058316;28;20025;-78
2022/03/09 10:42:03;;;;;;;13.05;7.93;;;10.60;57.50;;;;;;5071427;28;20118;-76
2022/03/09 10:44:45;;;;;;;14.98;7.88;;;10.70;57.20;;;;;;5080114;28;20021;-78
2022/03/09 10:47:27;;;;;;;10.48;7.47;;;10.90;56.60;;;;;;5095659;28;20042;-77
2022/03/09 10:49:53;;;;;;;14.70;8.20;;;11.00;57.50;;;;;;5070503;28;20033;-76
2022/03/09 10:52:19;;;;;;;13.20;8.32;;;11.20;57.20;;;;;;5058835;28;20048;-75
2022/03/09 10:54:45;;;;;;;16.15;8.32;;;11.20;56.40;;;;;;5075672;28;20037;-75
2022/03/09 10:57:12;;;;;;;11.50;7.95;;;11.40;56.30;;;;;;5058993;28;20041;-75
2022/03/09 10:59:51;;;;;;;12.77;8.05;;;11.50;56.40;;;;;;5110428;28;20029;-73
2022/03/09 11:02:21;;;;;;;12.95;8.68;;;11.60;56.10;;;;;;5082509;28;20025;-75
2022/03/09 11:05:09;;;;;;;15.05;8.60;;;11.70;56.20;;;;;;5093345;28;20030;-73
2022/03/09 11:07:37;;;;;;;12.73;7.88;;;11.90;55.10;;;;;;5076531;28;20067;-78
2022/03/09 11:10:05;;;;;;;13.82;8.43;;;11.90;55.70;;;;;;5107838;28;20033;-73
2022/03/09 11:12:32;;;;;;;14.68;8.35;;;12.00;55.20;;;;;;5079814;28;20048;-73
2022/03/09 11:14:58;;;;;;;11.93;8.57;;;12.10;55.10;;;;;;5079611;28;20040;-74
2022/03/09 11:17:25;;;;;;;14.40;8.05;;;12.10;55.20;;;;;;5080132;28;20048;-73
2022/03/09 11:19:51;;;;;;;14.30;8.55;;;12.30;55.10;;;;;;5079429;28;20037;-73
2022/03/09 11:22:17;;;;;;;13.80;8.48;;;12.40;54.80;;;;;;5079724;28;20037;-73
2022/03/09 11:24:44;;;;;;;13.75;8.40;;;12.50;55.20;;;;;;5092842;28;20029;-75
2022/03/09 11:27:11;;;;;;;13.07;8.57;;;12.50;53.90;;;;;;5082691;28;20031;-73
2022/03/09 11:29:39;;;;;;;15.45;8.18;;;12.50;53.50;;;;;;5099825;28;20024;-77
2022/03/09 11:32:14;;;;;;;13.10;8.25;;;12.60;53.80;;;;;;5083134;28;20028;-74
2022/03/09 11:34:46;;;;;;;11.40;8.25;;;12.80;53.60;;;;;;5099231;28;20032;-73
2022/03/09 11:37:33;;;;;;;13.10;8.43;;;12.90;53.30;;;;;;5098916;28;20094;-74
2022/03/09 11:40:08;;;;;;;12.38;8.55;;;13.00;53.00;;;;;;5042587;28;20086;-74
2022/03/09 11:42:36;;;;;;;11.98;8.68;;;13.10;52.30;;;;;;5059163;28;20041;-74
2022/03/09 11:45:17;;;;;;;14.27;8.98;;;13.20;53.50;;;;;;5058974;28;20067;-77
2022/03/09 11:48:03;;;;;;;10.50;8.20;;;13.20;51.80;;;;;;5059100;28;20029;-74
2022/03/09 11:50:36;;;;;;;14.23;8.57;;;13.30;50.40;;;;;;5059511;28;20030;-74
2022/03/09 11:53:07;;;;;;;13.38;8.90;;;13.40;51.80;;;;;;5075637;28;20089;-74
2022/03/09 11:55:35;;;;;;;11.35;8.25;;;13.40;50.80;;;;;;5059029;28;20037;-73
2022/03/09 11:58:03;;;;;;;13.38;9.02;;;13.50;51.60;;;;;;5075711;28;20075;-73
2022/03/09 12:00:30;;;;;;;12.00;8.25;;;13.60;51.10;;;;;;5059332;28;20032;-73
2022/03/09 12:02:57;;;;;;;13.15;8.88;;;13.60;50.50;;;;;;5058427;28;20026;-74
2022/03/09 12:05:31;;;;;;;12.80;8.43;;;13.60;51.20;;;;;;5059170;28;20060;-73
2022/03/09 12:08:12;;;;;;;13.20;7.97;;;13.70;50.30;;;;;;5042276;28;20065;-74
2022/03/09 12:10:48;;;;;;;13.48;8.82;;;13.80;49.70;;;;;;5058746;28;20037;-75
2022/03/09 12:13:31;;;;;;;12.10;8.50;;;13.90;50.40;;;;;;5057866;28;20045;-73
2022/03/09 12:16:02;;;;;;;15.15;9.38;;;14.10;49.80;;;;;;5069069;28;20493;-73
2022/03/09 12:18:38;;;;;;;14.20;9.07;;;14.00;49.40;;;;;;5098731;28;20040;-77
2022/03/09 12:21:08;;;;;;;14.05;9.02;;;14.00;48.40;;;;;;5081928;28;20051;-74
2022/03/09 12:23:35;;;;;;;13.82;8.48;;;14.00;49.20;;;;;;5098652;28;20033;-73
2022/03/09 12:26:02;;;;;;;15.30;9.20;;;14.00;49.40;;;;;;5098487;28;20084;-72
2022/03/09 12:28:37;;;;;;;12.52;9.15;;;14.10;49.00;;;;;;5081706;28;20040;-73
2022/03/09 12:31:03;;;;;;;12.57;8.35;;;14.10;48.20;;;;;;5081797;28;20024;-75
2022/03/09 12:33:32;;;;;;;11.30;8.63;;;14.20;48.90;;;;;;5098233;28;20043;-74
2022/03/09 12:36:09;;;;;;;12.25;9.15;;;14.40;49.40;;;;;;5098430;28;20025;-75
2022/03/09 12:38:35;;;;;;;12.07;9.00;;;14.50;48.60;;;;;;5098046;28;20044;-74
2022/03/09 12:41:02;;;;;;;17.17;8.90;;;14.60;49.10;;;;;;5098143;28;20036;-76
2022/03/09 12:43:46;;;;;;;15.60;8.93;;;14.70;48.40;;;;;;5080403;28;20037;-74